Time;durP1;ratioP1;P1;durP2;ratioP2;P2;SDS_P1;SDS_P2;PMS_P1;PMS_P2;Temp;Humidity;BMP_temperature;BMP_pressure;BME280_temperature;BME280_humidity;BME280_pressure;Samples;Min_cycle;Max_cycle;Signal;HPM_P1;HPM_P2
2020/12/24 00:00:18;;;;;;;75.30;60.00;;;;;;;7.34;90.35;98257.66;119302;1148;65347;-79
2020/12/24 00:02:59;;;;;;;77.33;62.20;;;;;;;7.41;90.79;98244.87;119358;1147;65190;-79
2020/12/24 00:05:26;;;;;;;71.23;57.77;;;;;;;7.43;90.35;98251.77;119289;1147;65127;-79
2020/12/24 00:07:52;;;;;;;67.35;55.30;;;;;;;7.45;90.42;98252.53;118901;1148;65111;-79
2020/12/24 00:10:19;;;;;;;62.58;50.90;;;;;;;7.46;90.20;98248.91;119017;1148;65088;-78
2020/12/24 00:12:45;;;;;;;68.83;55.30;;;;;;;7.52;90.26;98246.80;119256;1148;65209;-79
2020/12/24 00:15:12;;;;;;;69.42;54.05;;;;;;;7.52;90.04;98252.11;119249;1148;65206;-79
2020/12/24 00:17:40;;;;;;;65.17;54.40;;;;;;;7.53;89.99;98249.38;119251;1148;65095;-78
2020/12/24 00:20:07;;;;;;;68.20;55.55;;;;;;;7.56;90.23;98245.66;119248;1148;65087;-79
2020/12/24 00:22:33;;;;;;;68.47;55.83;;;;;;;7.58;90.40;98238.44;119292;1148;65133;-80
2020/12/24 00:25:00;;;;;;;69.50;55.40;;;;;;;7.60;90.03;98236.53;119242;1148;65053;-79
2020/12/24 00:27:26;;;;;;;64.07;52.40;;;;;;;7.57;89.66;98232.28;119252;1148;65197;-79
2020/12/24 00:29:53;;;;;;;59.47;50.20;;;;;;;7.53;89.63;98235.23;119209;1148;65204;-79
2020/12/24 00:32:19;;;;;;;63.53;52.00;;;;;;;7.52;89.76;98237.05;119179;1148;65113;-78
2020/12/24 00:34:46;;;;;;;62.77;53.50;;;;;;;7.54;90.17;98237.80;119276;1148;65119;-79
2020/12/24 00:37:12;;;;;;;70.08;55.38;;;;;;;7.61;90.08;98232.92;119270;1148;65109;-79
2020/12/24 00:39:39;;;;;;;76.50;59.07;;;;;;;7.61;90.29;98228.48;119267;1148;65121;-79
2020/12/24 00:42:05;;;;;;;71.50;60.53;;;;;;;7.63;90.31;98242.47;119283;1148;65099;-79
2020/12/24 00:44:31;;;;;;;73.20;60.00;;;;;;;7.60;90.03;98228.58;119222;1148;65206;-79
2020/12/24 00:46:58;;;;;;;65.43;58.13;;;;;;;7.54;90.23;98235.14;119217;1148;65108;-79
2020/12/24 00:49:24;;;;;;;64.90;56.85;;;;;;;7.55;89.82;98220.92;119240;1148;65175;-78
2020/12/24 00:51:51;;;;;;;69.60;58.25;;;;;;;7.54;89.70;98224.55;119297;1147;65107;-78
2020/12/24 00:54:17;;;;;;;66.70;53.53;;;;;;;7.43;89.70;98230.56;119230;1148;65171;-80
2020/12/24 00:56:43;;;;;;;61.95;51.95;;;;;;;7.44;90.17;98228.75;118961;1148;65080;-79
2020/12/24 00:59:10;;;;;;;65.70;56.50;;;;;;;7.49;90.39;98226.65;119281;1148;65117;-79
2020/12/24 01:01:38;;;;;;;67.95;58.25;;;;;;;7.54;90.14;98227.19;119260;1148;65051;-79
2020/12/24 01:04:05;;;;;;;67.87;56.93;;;;;;;7.56;90.23;98232.41;119216;1148;65268;-79
2020/12/24 01:06:31;;;;;;;69.30;58.73;;;;;;;7.54;90.18;98229.84;119246;1147;65111;-79
2020/12/24 01:08:58;;;;;;;72.15;58.90;;;;;;;7.48;89.51;98236.41;119240;1148;65541;-79
2020/12/24 01:11:30;;;;;;;69.13;56.37;;;;;;;7.50;89.77;98241.59;118989;1148;65085;-79
2020/12/24 01:13:57;;;;;;;67.37;57.30;;;;;;;7.51;90.14;98234.52;118836;1148;65290;-79
2020/12/24 01:16:24;;;;;;;67.60;55.63;;;;;;;7.48;89.92;98231.11;118745;1148;65191;-79
2020/12/24 01:18:51;;;;;;;75.95;64.70;;;;;;;7.50;89.84;98233.64;118652;1148;65184;-77
2020/12/24 01:21:17;;;;;;;81.87;70.37;;;;;;;7.50;89.85;98235.45;118857;1148;65101;-78
2020/12/24 01:23:44;;;;;;;85.33;71.33;;;;;;;7.51;90.33;98240.66;118835;1148;65120;-79
2020/12/24 01:26:10;;;;;;;78.63;69.20;;;;;;;7.54;90.05;98234.30;118965;1148;65101;-79
2020/12/24 01:28:36;;;;;;;75.60;64.85;;;;;;;7.55;90.22;98230.69;119284;1147;65215;-79
2020/12/24 01:31:05;;;;;;;77.23;68.83;;;;;;;7.53;90.17;98230.81;119136;1147;65105;-79
2020/12/24 01:33:31;;;;;;;82.70;72.90;;;;;;;7.55;90.31;98217.43;119309;1148;65234;-78
2020/12/24 01:35:59;;;;;;;88.80;76.17;;;;;;;7.59;89.99;98218.94;119233;1148;65180;-79
2020/12/24 01:38:25;;;;;;;95.43;84.50;;;;;;;7.57;89.85;98224.33;119249;1148;65086;-79
2020/12/24 01:41:00;;;;;;;99.90;88.77;;;;;;;7.53;89.93;98228.16;119267;1148;65135;-79
2020/12/24 01:43:27;;;;;;;108.83;92.60;;;;;;;7.53;90.22;98224.63;119307;1147;65113;-79
2020/12/24 01:45:55;;;;;;;99.27;83.47;;;;;;;7.52;89.82;98214.98;119278;1148;65117;-80
2020/12/24 01:48:23;;;;;;;92.07;78.57;;;;;;;7.50;89.88;98206.28;119328;1148;65133;-80
2020/12/24 01:50:49;;;;;;;93.27;76.43;;;;;;;7.48;89.53;98203.75;119413;1148;65111;-79
2020/12/24 01:53:23;;;;;;;93.80;79.23;;;;;;;7.46;89.98;98206.49;119398;1148;65232;-80
2020/12/24 01:55:58;;;;;;;86.65;72.75;;;;;;;7.52;90.11;98204.39;119380;1147;65117;-80
2020/12/24 01:58:24;;;;;;;91.93;76.47;;;;;;;7.54;89.79;98205.98;119354;1148;65092;-80
2020/12/24 02:00:51;;;;;;;98.90;78.07;;;;;;;7.54;89.87;98205.14;119329;1148;65111;-80
2020/12/24 02:03:18;;;;;;;98.50;80.27;;;;;;;7.56;90.14;98205.89;119333;1148;65236;-81
2020/12/24 02:05:44;;;;;;;99.90;76.95;;;;;;;7.58;90.46;98202.19;119315;1148;65124;-80
2020/12/24 02:08:14;;;;;;;93.50;72.85;;;;;;;7.60;90.02;98192.30;119289;1148;65085;-80
2020/12/24 02:10:41;;;;;;;;;;;;;;;7.66;90.40;98191.91;119385;1148;65146;-80
2020/12/24 02:13:07;;;;;;;88.10;70.25;;;;;;;7.72;90.13;98187.98;119369;1148;65094;-80
2020/12/24 02:15:33;;;;;;;92.02;71.72;;;;;;;7.76;90.33;98186.80;119302;1148;65101;-79
2020/12/24 02:18:00;;;;;;;100.57;80.00;;;;;;;7.87;91.00;98183.41;119410;1148;65098;-80
2020/12/24 02:20:28;;;;;;;109.03;84.73;;;;;;;7.90;90.41;98185.88;119314;1148;65159;-77
2020/12/24 02:22:54;;;;;;;108.80;84.80;;;;;;;7.95;90.40;98186.37;119307;1148;65073;-82
2020/12/24 02:25:20;;;;;;;101.23;76.73;;;;;;;7.99;90.55;98179.08;119368;1148;65133;-82
2020/12/24 02:27:47;;;;;;;85.10;68.50;;;;;;;7.97;90.18;98165.91;118923;1148;65711;-80
2020/12/24 02:30:13;;;;;;;81.63;65.07;;;;;;;7.96;90.25;98171.33;119117;1148;65115;-80
2020/12/24 02:32:40;;;;;;;77.07;62.47;;;;;;;7.93;90.37;98174.20;119152;1148;65079;-81
2020/12/24 02:35:06;;;;;;;76.67;58.73;;;;;;;7.95;90.75;98180.23;119369;1148;65124;-79
2020/12/24 02:37:33;;;;;;;76.33;55.47;;;;;;;8.00;91.08;98175.45;119392;1147;65207;-82
2020/12/24 02:39:59;;;;;;;72.70;55.43;;;;;;;8.06;90.89;98185.66;118989;1148;65194;-80
2020/12/24 02:42:25;;;;;;;69.10;54.63;;;;;;;8.14;90.80;98176.20;119283;1148;65171;-80
2020/12/24 02:44:52;;;;;;;63.90;50.37;;;;;;;8.19;90.90;98172.36;118956;1148;65159;-79
2020/12/24 02:47:18;;;;;;;56.80;44.87;;;;;;;8.21;90.89;98154.52;119359;1146;65123;-81
2020/12/24 02:49:44;;;;;;;46.93;38.47;;;;;;;8.22;91.15;98165.05;119372;1148;65111;-81
2020/12/24 02:52:11;;;;;;;43.27;33.30;;;;;;;8.23;91.80;98172.04;119332;1148;65170;-80
2020/12/24 02:54:37;;;;;;;39.83;31.63;;;;;;;8.24;91.70;98168.45;119270;1148;65131;-80
2020/12/24 02:57:03;;;;;;;37.80;29.23;;;;;;;8.29;91.55;98173.41;119248;1148;64996;-79
2020/12/24 02:59:30;;;;;;;31.00;22.37;;;;;;;8.31;91.92;98163.53;119271;1148;65088;-79
2020/12/24 03:01:56;;;;;;;34.67;23.20;;;;;;;8.38;92.21;98159.50;119253;1148;65094;-79
2020/12/24 03:04:23;;;;;;;25.47;19.47;;;;;;;8.45;92.62;98166.11;119236;1146;65127;-79
2020/12/24 03:06:49;;;;;;;25.67;18.70;;;;;;;8.55;92.68;98168.92;119274;1148;65187;-78
2020/12/24 03:09:16;;;;;;;20.72;16.65;;;;;;;8.64;92.37;98162.97;119328;1148;65111;-79
2020/12/24 03:11:49;;;;;;;18.50;15.13;;;;;;;8.74;92.83;98168.44;119207;1148;65082;-79
2020/12/24 03:14:19;;;;;;;21.10;16.90;;;;;;;8.83;92.84;98165.13;119260;1148;65143;-79
2020/12/24 03:16:46;;;;;;;;;;;;;;;8.90;92.11;98161.07;119312;1148;65215;-78
2020/12/24 03:19:14;;;;;;;20.50;14.47;;;;;;;8.95;91.96;98127.04;119290;1148;65105;-80
2020/12/24 03:21:40;;;;;;;14.00;10.25;;;;;;;9.00;92.44;98131.98;119318;1146;65099;-79
2020/12/24 03:24:06;;;;;;;10.97;8.63;;;;;;;9.08;91.86;98140.23;119281;1148;65142;-79
2020/12/24 03:26:33;;;;;;;10.10;7.57;;;;;;;9.15;92.31;98143.30;119273;1148;65207;-79
2020/12/24 03:28:59;;;;;;;8.03;5.73;;;;;;;9.21;92.57;98146.33;119276;1148;65118;-79
2020/12/24 03:31:26;;;;;;;5.53;4.78;;;;;;;9.29;91.92;98144.91;119272;1148;65537;-79
2020/12/24 03:33:54;;;;;;;5.33;4.20;;;;;;;9.36;92.37;98141.67;119186;1148;65104;-80
2020/12/24 03:36:21;;;;;;;3.90;3.50;;;;;;;9.43;92.42;98139.41;118953;1148;65076;-80
2020/12/24 03:38:48;;;;;;;4.30;2.70;;;;;;;9.48;91.71;98145.23;119333;1148;65102;-80
2020/12/24 03:41:15;;;;;;;3.20;2.87;;;;;;;9.54;91.81;98133.28;119319;1148;65223;-80
2020/12/24 03:43:42;;;;;;;4.75;3.70;;;;;;;9.59;91.85;98137.27;119340;1148;65101;-80
2020/12/24 03:46:08;;;;;;;4.90;4.50;;;;;;;9.62;91.37;98125.55;119349;1148;65132;-80
2020/12/24 03:48:35;;;;;;;3.87;3.37;;;;;;;9.62;91.40;98115.75;119340;1148;65058;-79
2020/12/24 03:51:01;;;;;;;3.17;2.87;;;;;;;9.63;91.24;98122.75;119273;1148;65098;-81
2020/12/24 03:53:28;;;;;;;3.20;2.80;;;;;;;9.64;90.96;98120.97;119351;1148;65159;-79
2020/12/24 03:55:54;;;;;;;2.73;2.50;;;;;;;9.66;91.34;98113.69;119341;1148;65198;-80
2020/12/24 03:58:20;;;;;;;3.70;3.30;;;;;;;9.67;91.55;98118.06;119368;1148;65110;-80
2020/12/24 04:00:47;;;;;;;4.45;3.25;;;;;;;9.69;90.70;98118.80;119294;1148;65127;-80
2020/12/24 04:03:13;;;;;;;4.03;3.00;;;;;;;9.71;90.87;98111.52;119332;1148;65175;-79
2020/12/24 04:05:40;;;;;;;3.17;2.87;;;;;;;9.71;90.88;98108.86;119102;1148;65124;-80
2020/12/24 04:08:06;;;;;;;3.57;3.23;;;;;;;9.73;91.08;98117.58;119127;1147;65137;-79
2020/12/24 04:10:33;;;;;;;3.50;3.00;;;;;;;9.74;90.72;98105.12;119098;1148;65116;-80
2020/12/24 04:12:59;;;;;;;3.60;3.10;;;;;;;9.74;90.67;98108.66;119327;1148;65082;-81
2020/12/24 04:15:26;;;;;;;3.93;3.53;;;;;;;9.76;90.67;98114.67;118920;1148;65184;-80
2020/12/24 04:17:53;;;;;;;4.70;3.40;;;;;;;9.78;90.38;98112.75;119187;1148;65101;-79
2020/12/24 04:20:19;;;;;;;4.37;3.60;;;;;;;9.80;90.08;98108.16;119337;1148;65028;-80
2020/12/24 04:22:46;;;;;;;3.50;3.00;;;;;;;9.80;90.46;98110.83;119346;1148;65141;-80
2020/12/24 04:25:13;;;;;;;4.07;3.67;;;;;;;9.82;90.37;98113.34;119380;1148;65155;-79
2020/12/24 04:27:40;;;;;;;4.10;3.50;;;;;;;9.82;89.93;98113.34;119313;1148;65079;-80
2020/12/24 04:30:06;;;;;;;4.40;4.00;;;;;;;9.81;89.82;98114.33;119360;1148;65202;-80
2020/12/24 04:32:34;;;;;;;4.27;3.57;;;;;;;9.77;90.14;98112.86;119393;1148;65104;-81
2020/12/24 04:35:01;;;;;;;4.17;3.73;;;;;;;9.74;89.58;98105.12;119379;1146;65025;-79
2020/12/24 04:37:27;;;;;;;4.75;3.30;;;;;;;9.72;90.25;98109.73;119342;1148;65222;-77
2020/12/24 04:39:54;;;;;;;5.85;4.00;;;;;;;9.70;89.98;98098.36;119278;1148;65255;-79
2020/12/24 04:42:21;;;;;;;5.00;3.70;;;;;;;9.67;89.80;98081.66;119282;1147;65225;-79
2020/12/24 04:44:49;;;;;;;6.20;4.10;;;;;;;9.65;89.44;98080.09;119280;1148;65146;-79
2020/12/24 04:47:19;;;;;;;5.03;4.00;;;;;;;9.61;89.53;98087.47;119323;1148;65139;-79
2020/12/24 04:49:46;;;;;;;8.05;5.47;;;;;;;9.59;89.86;98100.03;119301;1148;65108;-78
2020/12/24 04:52:14;;;;;;;6.40;4.85;;;;;;;9.56;89.77;98099.44;119271;1148;65152;-78
2020/12/24 04:54:41;;;;;;;6.03;4.23;;;;;;;9.55;89.29;98100.38;119310;1148;65204;-79
2020/12/24 04:57:10;;;;;;;6.23;4.40;;;;;;;9.55;89.11;98103.04;119244;1148;65105;-79
2020/12/24 04:59:38;;;;;;;6.70;4.30;;;;;;;9.53;89.29;98094.33;119342;1148;65089;-77
2020/12/24 05:02:05;;;;;;;5.50;3.75;;;;;;;9.54;89.84;98090.72;119297;1148;65195;-81
2020/12/24 05:04:33;;;;;;;5.95;4.40;;;;;;;9.52;89.68;98095.30;119334;1147;65204;-81
2020/12/24 05:07:04;;;;;;;7.30;4.70;;;;;;;9.51;89.41;98094.46;119343;1148;65127;-80
2020/12/24 05:09:31;;;;;;;5.33;3.70;;;;;;;9.51;89.54;98094.46;119313;1148;65112;-78
2020/12/24 05:11:58;;;;;;;4.33;3.80;;;;;;;9.49;89.09;98095.55;118887;1148;65564;-80
2020/12/24 05:14:26;;;;;;;4.43;3.83;;;;;;;9.46;89.59;98096.63;119112;1148;65210;-81
2020/12/24 05:16:58;;;;;;;4.67;3.60;;;;;;;9.41;89.30;98102.29;119318;1148;65137;-81
2020/12/24 05:19:29;;;;;;;4.00;3.40;;;;;;;9.36;89.13;98111.59;119385;1148;65427;-80
2020/12/24 05:21:57;;;;;;;6.70;4.00;;;;;;;9.31;88.99;98105.77;119237;1148;65111;-80
2020/12/24 05:24:28;;;;;;;6.03;4.53;;;;;;;9.26;89.19;98106.11;119261;1148;65072;-80
2020/12/24 05:27:08;;;;;;;6.47;4.00;;;;;;;9.20;89.44;98104.77;119277;1148;65138;-81
2020/12/24 05:29:39;;;;;;;;;;;;;;;9.13;88.97;98102.69;119286;1148;65123;-82
2020/12/24 05:32:06;;;;;;;5.47;3.73;;;;;;;9.08;89.42;98110.16;119325;1148;65168;-82
2020/12/24 05:34:33;;;;;;;6.85;5.05;;;;;;;9.03;89.46;98112.31;119329;1148;65028;-81
2020/12/24 05:37:15;;;;;;;5.30;3.97;;;;;;;9.00;88.96;98119.57;119394;1148;65083;-82
2020/12/24 05:39:44;;;;;;;7.73;5.23;;;;;;;8.97;88.98;98117.12;118922;1147;65113;-81
2020/12/24 05:42:11;;;;;;;4.90;4.10;;;;;;;8.94;88.96;98119.16;119218;1148;65089;-81
2020/12/24 05:44:38;;;;;;;7.40;6.45;;;;;;;8.92;89.02;98121.92;119246;1148;65124;-80
2020/12/24 05:47:06;;;;;;;11.20;9.60;;;;;;;8.91;89.19;98128.21;119286;1148;65108;-80
2020/12/24 05:49:34;;;;;;;8.03;6.70;;;;;;;8.93;89.49;98128.11;119177;1148;65021;-80
2020/12/24 05:52:03;;;;;;;10.57;6.30;;;;;;;8.96;89.21;98119.91;119279;1147;65081;-79
2020/12/24 05:54:30;;;;;;;10.27;6.13;;;;;;;9.01;89.05;98115.94;119349;1148;65104;-79
2020/12/24 05:56:58;;;;;;;9.20;6.77;;;;;;;9.06;89.15;98117.39;119262;1148;65172;-79
2020/12/24 05:59:29;;;;;;;9.50;6.70;;;;;;;9.05;89.55;98113.89;119303;1148;65104;-79
2020/12/24 06:02:00;;;;;;;9.75;7.30;;;;;;;9.02;89.44;98106.16;119167;1148;65111;-79
2020/12/24 06:04:44;;;;;;;11.70;8.45;;;;;;;8.97;88.95;98102.98;119253;1148;65037;-79
2020/12/24 06:07:18;;;;;;;12.90;8.60;;;;;;;8.95;89.01;98097.80;119276;1148;65153;-78
2020/12/24 06:09:47;;;;;;;7.50;5.95;;;;;;;8.90;88.79;98097.30;119281;1148;65120;-79
2020/12/24 06:12:20;;;;;;;9.40;6.95;;;;;;;8.86;89.15;98085.19;119357;1148;65229;-79
2020/12/24 06:14:55;;;;;;;9.03;7.87;;;;;;;8.83;88.80;98090.73;119210;1148;65622;-78
2020/12/24 06:17:25;;;;;;;11.57;10.03;;;;;;;8.82;88.78;98077.55;119333;1148;65495;-79
2020/12/24 06:19:52;;;;;;;10.90;9.53;;;;;;;8.78;89.20;98083.10;119298;1148;65105;-78
2020/12/24 06:22:20;;;;;;;7.90;7.00;;;;;;;8.76;89.31;98086.83;119248;1148;65124;-77
2020/12/24 06:24:57;;;;;;;10.53;8.20;;;;;;;8.73;89.32;98095.03;119337;1148;65121;-80
2020/12/24 06:27:52;;;;;;;9.35;7.80;;;;;;;8.66;89.24;98096.44;119261;1148;65109;-79
2020/12/24 06:30:22;;;;;;;11.00;8.30;;;;;;;8.63;88.77;98101.98;119250;1148;65022;-79
2020/12/24 06:32:51;;;;;;;12.13;9.70;;;;;;;8.62;89.03;98101.14;119295;1148;65140;-79
2020/12/24 06:35:39;;;;;;;14.17;11.33;;;;;;;8.61;89.00;98101.23;119311;1148;65210;-79
2020/12/24 06:38:09;;;;;;;10.20;8.38;;;;;;;8.63;88.79;98104.64;119287;1148;65089;-78
2020/12/24 06:40:40;;;;;;;9.07;7.50;;;;;;;8.66;89.45;98096.44;119347;1148;65111;-79
2020/12/24 06:43:10;;;;;;;9.35;7.60;;;;;;;8.71;89.46;98089.82;119258;1148;65203;-79
2020/12/24 06:45:41;;;;;;;9.73;8.07;;;;;;;8.77;89.32;98094.70;119255;1148;65175;-79
2020/12/24 06:48:10;;;;;;;8.77;6.90;;;;;;;8.85;88.60;98087.98;119247;1148;65133;-79
2020/12/24 06:50:39;;;;;;;8.13;6.07;;;;;;;8.91;88.73;98087.52;119218;1148;65258;-80
2020/12/24 06:53:21;;;;;;;7.40;5.87;;;;;;;8.96;88.70;98090.67;119149;1148;65185;-81
2020/12/24 06:56:27;;;;;;;6.90;5.40;;;;;;;9.03;88.63;98091.92;119337;1148;65201;-78
2020/12/24 06:59:03;;;;;;;6.30;5.10;;;;;;;9.11;88.75;98092.19;119276;1148;65201;-79
2020/12/24 07:01:31;;;;;;;6.85;5.45;;;;;;;9.14;88.30;98088.45;119298;1148;65232;-79
2020/12/24 07:04:00;;;;;;;6.90;4.93;;;;;;;9.19;88.42;98086.30;119312;1148;65633;-79
2020/12/24 07:06:42;;;;;;;7.40;5.40;;;;;;;9.23;88.65;98095.72;119340;1148;65102;-79
2020/12/24 07:09:32;;;;;;;8.27;6.13;;;;;;;9.25;87.87;98096.45;119285;1148;65536;-81
2020/12/24 07:12:00;;;;;;;7.17;5.37;;;;;;;9.29;87.94;98095.23;119221;1147;65252;-79
2020/12/24 07:14:45;;;;;;;6.70;5.20;;;;;;;9.32;87.86;98102.13;119338;1148;65210;-81
2020/12/24 07:17:19;;;;;;;6.95;6.25;;;;;;;9.38;87.61;98097.20;119322;1148;65113;-79
2020/12/24 07:19:49;;;;;;;7.40;6.35;;;;;;;9.42;87.61;98092.49;119266;1148;65110;-79
2020/12/24 07:22:18;;;;;;;6.53;4.60;;;;;;;9.46;87.39;98088.64;119398;1148;65095;-79
2020/12/24 07:25:00;;;;;;;6.63;5.33;;;;;;;9.53;87.89;98091.66;119167;1148;65085;-81
2020/12/24 07:27:27;;;;;;;8.57;5.63;;;;;;;9.57;87.39;98098.45;119257;1148;65111;-80
2020/12/24 07:29:54;;;;;;;6.33;5.30;;;;;;;9.60;86.98;98095.55;118833;1148;65271;-80
2020/12/24 07:32:21;;;;;;;6.53;5.07;;;;;;;9.63;87.42;98100.63;119259;1148;65095;-80
2020/12/24 07:34:48;;;;;;;7.93;5.30;;;;;;;9.63;86.61;98093.49;119256;1148;65166;-79
2020/12/24 07:37:14;;;;;;;6.33;5.00;;;;;;;9.67;86.76;98097.63;119245;1148;65118;-77
2020/12/24 07:39:55;;;;;;;7.03;4.63;;;;;;;9.72;87.37;98099.94;119308;1148;65047;-81
2020/12/24 07:42:26;;;;;;;8.33;6.67;;;;;;;9.74;87.23;98099.80;118977;1148;65117;-80
2020/12/24 07:44:53;;;;;;;9.45;7.60;;;;;;;9.74;86.60;98092.69;118918;1148;65180;-78
2020/12/24 07:47:19;;;;;;;7.40;6.47;;;;;;;9.73;86.97;98088.31;119286;1148;65024;-79
2020/12/24 07:49:52;;;;;;;11.20;8.00;;;;;;;9.74;86.05;98084.70;119271;1148;65294;-79
2020/12/24 07:52:19;;;;;;;10.47;7.17;;;;;;;9.75;86.42;98078.41;119269;1148;65203;-80
2020/12/24 07:54:46;;;;;;;11.17;7.60;;;;;;;9.78;86.35;98082.64;119279;1148;65478;-78
2020/12/24 07:57:23;;;;;;;10.10;6.70;;;;;;;9.78;86.36;98075.50;119326;1148;65047;-81
2020/12/24 07:59:58;;;;;;;6.60;5.50;;;;;;;9.79;87.01;98084.32;119344;1148;65015;-81
2020/12/24 08:02:25;;;;;;;6.90;4.10;;;;;;;9.80;86.39;98088.70;119234;1148;65196;-80
2020/12/24 08:04:55;;;;;;;5.07;4.27;;;;;;;9.81;86.42;98087.72;119139;1148;65122;-80
2020/12/24 08:07:21;;;;;;;5.70;4.70;;;;;;;9.81;86.05;98082.39;119272;1148;65149;-80
2020/12/24 08:09:48;;;;;;;4.97;4.10;;;;;;;9.82;85.83;98074.30;119100;1148;65166;-80
2020/12/24 08:12:22;;;;;;;7.20;5.13;;;;;;;9.84;86.31;98076.83;119015;1148;65207;-80
2020/12/24 08:14:49;;;;;;;5.40;4.85;;;;;;;9.84;86.30;98075.00;119320;1148;65167;-80
2020/12/24 08:17:25;;;;;;;10.35;6.10;;;;;;;9.83;86.34;98078.65;119247;1148;65180;-79
2020/12/24 08:20:02;;;;;;;9.00;5.70;;;;;;;9.82;86.06;98073.43;119244;1148;65477;-80
2020/12/24 08:22:32;;;;;;;8.35;5.85;;;;;;;9.82;86.08;98065.45;119293;1148;65181;-79
2020/12/24 08:25:00;;;;;;;9.80;6.92;;;;;;;9.83;86.71;98061.84;119264;1148;65197;-79
2020/12/24 08:27:27;;;;;;;9.10;7.20;;;;;;;9.82;86.70;98061.00;119298;1148;65171;-80
2020/12/24 08:29:58;;;;;;;8.43;6.07;;;;;;;9.83;85.95;98067.16;119297;1148;65120;-79
2020/12/24 08:32:25;;;;;;;7.97;5.83;;;;;;;9.83;85.79;98069.82;119252;1148;65088;-79
2020/12/24 08:34:51;;;;;;;8.45;6.10;;;;;;;9.83;86.49;98069.82;119246;1148;65185;-79
2020/12/24 08:37:28;;;;;;;8.03;6.43;;;;;;;9.82;86.87;98070.77;119243;1148;65142;-79
2020/12/24 08:39:54;;;;;;;8.63;6.60;;;;;;;9.80;86.23;98076.23;119094;1148;65172;-79
2020/12/24 08:42:23;;;;;;;8.03;6.67;;;;;;;9.79;86.84;98076.34;119058;1148;65130;-80
2020/12/24 08:44:57;;;;;;;8.63;6.37;;;;;;;9.80;86.71;98080.71;118989;1148;65108;-80
2020/12/24 08:47:23;;;;;;;9.27;7.73;;;;;;;9.77;86.69;98079.14;119020;1148;65207;-80
2020/12/24 08:49:49;;;;;;;9.53;7.00;;;;;;;9.76;86.42;98081.91;119295;1148;65109;-80
2020/12/24 08:52:23;;;;;;;9.27;6.53;;;;;;;9.72;87.06;98088.45;118919;1148;65148;-80
2020/12/24 08:55:00;;;;;;;9.53;7.20;;;;;;;9.68;87.37;98091.33;119023;1148;65079;-78
2020/12/24 08:57:27;;;;;;;9.13;6.97;;;;;;;9.65;87.09;98096.89;119165;1148;65104;-78
2020/12/24 08:59:58;;;;;;;9.30;6.83;;;;;;;9.62;87.21;98091.81;119257;1148;65130;-79
2020/12/24 09:02:29;;;;;;;9.63;7.97;;;;;;;9.61;87.55;98098.11;119268;1148;65113;-78
2020/12/24 09:04:57;;;;;;;9.00;6.80;;;;;;;9.61;87.09;98102.55;118995;1148;65255;-78
2020/12/24 09:07:33;;;;;;;6.37;5.43;;;;;;;9.62;87.31;98098.95;118873;1148;65124;-78
2020/12/24 09:10:14;;;;;;;9.50;6.97;;;;;;;9.59;87.43;98107.17;119020;1148;65204;-78
2020/12/24 09:12:43;;;;;;;8.33;6.90;;;;;;;9.57;87.93;98104.62;119060;1147;65536;-79
2020/12/24 09:15:12;;;;;;;6.77;5.90;;;;;;;9.54;87.82;98101.36;119308;1148;65098;-80
2020/12/24 09:17:50;;;;;;;7.23;5.57;;;;;;;9.52;87.77;98113.92;119422;1148;65196;-80
2020/12/24 09:20:31;;;;;;;8.77;6.70;;;;;;;9.48;88.08;98112.45;119325;1147;65162;-78
2020/12/24 09:23:03;;;;;;;10.20;7.20;;;;;;;9.47;88.16;98108.95;119287;1148;65548;-79
2020/12/24 09:25:31;;;;;;;8.47;6.80;;;;;;;9.44;88.07;98106.53;119006;1148;65108;-79
2020/12/24 09:27:58;;;;;;;8.77;6.73;;;;;;;9.42;88.68;98113.77;119017;1148;65127;-79
2020/12/24 09:30:25;;;;;;;7.30;6.17;;;;;;;9.39;88.37;98111.34;119297;1148;65195;-80
2020/12/24 09:33:00;;;;;;;8.93;6.73;;;;;;;9.36;88.70;98104.45;119180;1148;65526;-79
2020/12/24 09:35:28;;;;;;;9.40;6.30;;;;;;;9.34;88.41;98101.05;119285;1148;65075;-80
2020/12/24 09:37:55;;;;;;;8.27;6.43;;;;;;;9.33;88.55;98103.84;119198;1148;65012;-79
2020/12/24 09:40:23;;;;;;;9.75;7.05;;;;;;;9.32;89.31;98103.01;119285;1148;65102;-79
2020/12/24 09:42:50;;;;;;;10.53;7.00;;;;;;;9.31;89.13;98095.13;119246;1148;65163;-79
2020/12/24 09:45:16;;;;;;;10.33;7.67;;;;;;;9.28;88.74;98104.19;119278;1148;65114;-79
2020/12/24 09:47:44;;;;;;;11.03;7.37;;;;;;;9.27;89.04;98101.63;118919;1148;65108;-80
2020/12/24 09:50:11;;;;;;;10.07;7.73;;;;;;;9.25;89.12;98100.92;118914;1148;65123;-79
2020/12/24 09:52:38;;;;;;;8.70;6.80;;;;;;;9.23;89.31;98093.89;118831;1147;65105;-79
2020/12/24 09:55:05;;;;;;;11.25;8.20;;;;;;;9.24;89.68;98089.42;119017;1148;65258;-79
2020/12/24 09:57:33;;;;;;;10.95;8.55;;;;;;;9.25;89.48;98090.30;119288;1148;65085;-79
2020/12/24 10:00:00;;;;;;;11.40;8.10;;;;;;;9.25;89.14;98090.30;119269;1148;65101;-79
2020/12/24 10:02:27;;;;;;;10.00;8.57;;;;;;;9.21;89.42;98092.31;119172;1148;65095;-79
2020/12/24 10:04:53;;;;;;;15.23;11.77;;;;;;;9.19;89.30;98100.42;119258;1148;65618;-79
2020/12/24 10:07:24;;;;;;;30.45;21.00;;;;;;;9.17;89.35;98097.03;119251;1148;65156;-79
2020/12/24 10:09:52;;;;;;;18.13;12.03;;;;;;;9.15;90.01;98096.29;119293;1145;65212;-79
2020/12/24 10:12:27;;;;;;;18.80;11.07;;;;;;;9.15;89.56;98085.66;119319;1148;65135;-78
2020/12/24 10:14:55;;;;;;;26.20;14.63;;;;;;;9.15;89.77;98106.92;119274;1148;65101;-80
2020/12/24 10:17:23;;;;;;;26.60;14.70;;;;;;;9.15;89.70;98101.61;119245;1148;65098;-81
2020/12/24 10:19:55;;;;;;;24.80;14.23;;;;;;;9.15;89.56;98106.08;119398;1148;65122;-81
2020/12/24 10:22:23;;;;;;;19.83;14.00;;;;;;;9.14;89.53;98107.06;119295;1148;65116;-79
2020/12/24 10:24:50;;;;;;;17.17;11.90;;;;;;;9.11;89.52;98100.16;118936;1148;65201;-81
2020/12/24 10:27:16;;;;;;;16.47;11.87;;;;;;;9.12;89.39;98103.66;119344;1148;65095;-80
2020/12/24 10:29:43;;;;;;;16.17;10.67;;;;;;;9.12;89.78;98093.88;119055;1148;65101;-79
2020/12/24 10:32:10;;;;;;;18.47;12.20;;;;;;;9.13;89.73;98097.38;118816;1148;65458;-79
2020/12/24 10:34:37;;;;;;;14.00;8.93;;;;;;;9.12;89.70;98095.69;119252;1148;65178;-79
2020/12/24 10:37:03;;;;;;;13.50;9.83;;;;;;;9.11;89.57;98086.88;119357;1148;65074;-79
2020/12/24 10:39:30;;;;;;;11.40;8.80;;;;;;;9.08;89.88;98087.08;119126;1148;65108;-79
2020/12/24 10:41:57;;;;;;;13.85;9.30;;;;;;;9.07;89.59;98085.39;119213;1148;65111;-79
2020/12/24 10:44:24;;;;;;;13.83;8.27;;;;;;;9.04;89.66;98082.13;119229;1148;65114;-80
2020/12/24 10:46:57;;;;;;;10.37;8.37;;;;;;;9.03;89.84;98075.97;119313;1148;65112;-79
2020/12/24 10:49:24;;;;;;;15.45;10.85;;;;;;;9.01;90.15;98077.89;119213;1148;65206;-79
2020/12/24 10:51:51;;;;;;;12.67;8.33;;;;;;;9.01;90.03;98067.27;119273;1148;65140;-82
2020/12/24 10:54:18;;;;;;;12.33;9.40;;;;;;;9.01;89.44;98059.29;119336;1148;65223;-79
2020/12/24 10:56:46;;;;;;;13.73;9.63;;;;;;;9.03;89.46;98069.78;119315;1148;65107;-80
2020/12/24 10:59:14;;;;;;;10.67;8.43;;;;;;;9.04;89.36;98059.05;119402;1148;65149;-85
2020/12/24 11:01:48;;;;;;;12.97;9.07;;;;;;;9.05;89.75;98063.39;119246;1148;65018;-82
2020/12/24 11:04:15;;;;;;;13.40;9.00;;;;;;;9.05;89.76;98051.92;119158;1148;65110;-85
2020/12/24 11:06:43;;;;;;;14.67;9.93;;;;;;;9.03;89.82;98046.74;119346;1148;65060;-83
2020/12/24 11:09:11;;;;;;;11.13;8.03;;;;;;;9.01;89.17;98049.50;119349;1148;65535;-83
2020/12/24 11:11:38;;;;;;;12.77;9.20;;;;;;;8.99;89.18;98043.45;119319;1148;65114;-79
2020/12/24 11:14:04;;;;;;;13.85;8.90;;;;;;;8.98;89.46;98039.11;119185;1148;65117;-78
2020/12/24 11:16:31;;;;;;;11.45;8.35;;;;;;;9.01;89.62;98044.19;119278;1148;65203;-78
2020/12/24 11:18:59;;;;;;;9.93;7.40;;;;;;;8.99;89.39;98039.95;119281;1148;65044;-79
2020/12/24 11:21:32;;;;;;;10.55;7.35;;;;;;;9.01;89.61;98038.03;119216;1148;65142;-78
2020/12/24 11:24:04;;;;;;;10.95;7.80;;;;;;;9.01;89.52;98030.06;119130;1148;65085;-78
2020/12/24 11:26:32;;;;;;;10.37;6.93;;;;;;;8.99;89.50;98030.16;119252;1148;65145;-79
2020/12/24 11:29:03;;;;;;;11.07;8.27;;;;;;;9.00;89.25;98036.31;119313;1148;65098;-85
2020/12/24 11:31:31;;;;;;;8.00;7.07;;;;;;;8.97;88.89;98020.61;120447;1148;65672;-82
2020/12/24 11:33:59;;;;;;;8.63;6.73;;;;;;;8.97;89.17;98017.95;119821;1148;65075;-81